Aviation Digital Data Service (ADDS)

Output produced by TAFs form (2057 UTC 27 August 2014)
found at http://aviationweather.gov/adds/tafs/
 
KVEL 271908Z 2719/2818 18010G18KT P6SM -SHRA BKN050 BKN080 
     TEMPO 2719/2721 27003KT 3SM RA BR 
     FM280000 02005KT P6SM VCSH SCT050 OVC080 
     FM280100 VRB02KT P6SM BKN080